Trenton, MO

5:48 PM CDT on July 31, 2014 (GMT -0500)
trenton mo (KMOTRENT4) Elev 850 ft | 40.07 °N, 93.61 °W | Change Station

Current weather conditions updated 3 seconds ago

Mostly Cloudy
Mostly Cloudy
82.2 °F
Feels Like 82 °F
N
3.5
Wind Variable Wind from NNW
Gusts 3.5 mph

Tomorrow is forecast to be nearly the same temperature as today. A few morning showers.

Today
High -- | Low -- °F
--% Chance of Precip.
Yesterday
High -- | Low -- °F
Precip. -- in
6:11 AM 8:29 PM
Waxing Crescent, 21% visible
Pressure 30.07 in
Visibility 10.0 miles
Clouds Mostly Cloudy 6000 ft
Heat Index 82 °F
Dew Point 59 °F
Humidity 46%
Rainfall 0.00 in
Snow Depth Not available.
UV 4 out of 12
Pollen 6.30 out of 12
Air Quality Not available.
Flu Activity Not available.
METAR KLWD 312053Z AUTO 22005KT 10SM BKN060 26/12 A3008 RMK AO2 SLP181 T02560122 56009

More Conditions Fewer Conditions

Pressure 30.07 in
Visibility 10.0 miles
Clouds Mostly Cloudy 6000 ft
Heat Index 82 °F
Dew Point 59 °F
Humidity 46%
Rainfall 0.00 in
Snow Depth Not available.
UV 4 out of 12
Pollen 6.30 out of 12
Air Quality Not available.
Flu Activity Not available.
METAR KLWD 312053Z AUTO 22005KT 10SM BKN060 26/12 A3008 RMK AO2 SLP181 T02560122 56009

More Conditions Fewer Conditions

10-Day Weather Forecast

Almanac

Astronomy

Jul. 31, 2014 Rise Set
Actual Time 6:11 AM CDT 8:29 PM CDT
Civil Twilight 5:41 AM CDT 8:59 PM CDT
Nautical Twilight 5:03 AM CDT 9:37 PM CDT
Astronomical Twilight 4:22 AM CDT 10:18 PM CDT
Moon 10:39 AM CDT 10:42 PM CDT
Length of Visible Light 15h 18m
Length of Day
14h 17m
Tomorrow will be 1m 59s shorter.
Waxing Crescent, 21% of the Moon is Illuminated
Today
Waxing Crescent
Aug 3
First Quarter
Aug 10
Full
Aug 17
Last Quarter
Aug 25
New

Today's Extremes

State Highs State Lows

Community

WunderPhotos

Upload Photos

1,739,474 photos uploaded!

Nearby

Snow Depth

Station Depth Elevation
No new snow has been reported.

Earthquake Activity

City Distance Mag. Time & Date
No recent earthquake activity has been reported nearby.
Minimum magnitude displayed is 2.5.

Coastal Water Temperatures

Place Temperature
No Stations Reporting

Nearby Weather Stations

Station Location Temp. Heat Index Dew Point Humidity Wind Precip. Elev Updated Type
trenton mo, Trenton, MO 82.2 °F 82 °F 59 °F 46% NNW  at  3.5 mph 0.00 in / hr 850 ft 5:48 PM CDT Rapid Fire
Big Rock, Trenton, MO 90.9 °F 92 °F 63 °F 40% ESE  at  3.2 mph - / hr 814 ft 5:39 PM CDT Normal
MesoWest COBURN , Jamesport, MO 81 °F 79 °F - - North  at  - 0.00 in / hr 901 ft 3:25 PM CDT MADIS
MesoWest SPICKARD , Gilman City, MO 83 °F 82 °F 52 °F 35% WSW  at  3 mph 0.00 in / hr 911 ft 4:00 PM CDT MADIS
Northwest Chillicothe, Chillicothe, MO 82.6 °F 83 °F 60 °F 47% South  at  0.0 mph 0.00 in / hr 843 ft 5:48 PM CDT Rapid Fire
North Central Missouri, Browning, MO 82.0 °F 82 °F 56 °F 41% NNW  at  0.0 mph 0.00 in / hr 810 ft 5:48 PM CDT Rapid Fire

Show More Stations Show Fewer Stations